Time;durP1;ratioP1;P1;durP2;ratioP2;P2;SDS_P1;SDS_P2;PMS_P1;PMS_P2;Temp;Humidity;BMP_temperature;BMP_pressure;BME280_temperature;BME280_humidity;BME280_pressure;Samples;Min_cycle;Max_cycle;Signal;HPM_P1;HPM_P2
2023/02/28 06:44:26;;;;;;;5.80;3.25;;;0.10;99.90;;;;;;5018738;22;21834;-80
2023/02/28 06:46:51;;;;;;;6.47;3.60;;;0.20;99.90;;;;;;5032697;28;20111;-80
2023/02/28 14:45:39;;;;;;;8.88;5.30;;;;;;;;;;5034606;22;20130;-79
2023/02/28 14:48:09;;;;;;;8.63;5.32;;;5.80;89.70;;;;;;5027345;28;20072;-79
2023/02/28 14:50:36;;;;;;;7.68;5.15;;;8.10;90.70;;;;;;5031932;28;20072;-80
2023/02/28 14:53:03;;;;;;;8.07;5.03;;;5.70;89.90;;;;;;5032410;28;20037;-79
2023/02/28 14:55:32;;;;;;;8.13;4.88;;;6.20;90.00;;;;;;5029443;28;20585;-79
2023/02/28 14:58:06;;;;;;;10.00;5.72;;;7.80;90.70;;;;;;5035305;28;20191;-79
2023/02/28 15:00:37;;;;;;;11.85;5.60;;;5.70;90.10;;;;;;5025496;28;20039;-80
2023/02/28 15:03:18;;;;;;;;;;;5.60;90.20;;;;;;5033087;28;20055;-80
2023/02/28 15:05:55;;;;;;;7.43;4.68;;;5.70;90.20;;;;;;5009513;28;20187;-80
2023/02/28 15:08:20;;;;;;;8.38;5.25;;;5.70;90.10;;;;;;5033043;28;20037;-80
2023/02/28 15:10:51;;;;;;;8.35;5.18;;;5.80;90.00;;;;;;5027992;28;20025;-80
2023/02/28 15:13:18;;;;;;;9.48;5.53;;;5.80;90.00;;;;;;5030620;28;20036;-80
2023/02/28 15:15:59;;;;;;;8.63;6.18;;;5.90;89.70;;;;;;5029294;28;20051;-79
2023/02/28 15:18:43;;;;;;;7.88;5.55;;;5.80;89.00;;;;;;5031426;28;20033;-80
2023/02/28 15:21:15;;;;;;;9.45;6.30;;;5.80;90.00;;;;;;5034846;28;20064;-80
2023/02/28 15:23:45;;;;;;;8.75;5.07;;;6.40;89.60;;;;;;5038625;28;20072;-80
2023/02/28 15:26:17;;;;;;;8.88;5.43;;;5.80;88.90;;;;;;5061421;28;20028;-80
2023/02/28 15:28:43;;;;;;;8.88;5.50;;;7.00;90.00;;;;;;5045495;28;20034;-80
2023/02/28 15:31:26;;;;;;;8.40;5.38;;;5.80;89.40;;;;;;5037866;28;20051;-80
2023/02/28 15:33:54;;;;;;;9.80;5.55;;;5.80;89.40;;;;;;5059992;28;20037;-79
2023/02/28 15:36:24;;;;;;;9.27;5.82;;;5.70;89.70;;;;;;5054216;28;20036;-78
2023/02/28 15:38:51;;;;;;;8.50;5.45;;;5.60;90.00;;;;;;5035604;28;20105;-78
2023/02/28 15:41:28;;;;;;;9.95;5.50;;;5.50;90.20;;;;;;5033156;28;20033;-79
2023/02/28 15:44:17;;;;;;;9.95;6.13;;;6.30;90.50;;;;;;5030267;28;20085;-78
2023/02/28 15:46:53;;;;;;;10.15;6.32;;;5.40;90.30;;;;;;5024255;28;20495;-76
2023/02/28 15:49:21;;;;;;;9.57;5.53;;;5.30;90.40;;;;;;5018612;28;20483;-77
2023/02/28 15:51:50;;;;;;;9.77;5.43;;;5.20;90.60;;;;;;5013510;28;20110;-78
2023/02/28 15:54:24;;;;;;;10.25;5.80;;;5.40;90.20;;;;;;5027801;28;20036;-79
2023/02/28 15:56:56;;;;;;;8.27;5.72;;;5.40;90.40;;;;;;5022201;28;20044;-80
2023/02/28 15:59:27;;;;;;;9.48;5.97;;;5.50;90.40;;;;;;5039960;28;20060;-76
2023/02/28 16:02:03;;;;;;;;;;;5.50;90.20;;;;;;5027724;28;20053;-78
2023/02/28 16:04:31;;;;;;;9.70;5.13;;;5.50;90.30;;;;;;5030528;28;20354;-78
2023/02/28 16:07:02;;;;;;;8.70;5.85;;;5.40;90.30;;;;;;5020393;28;20462;-79
2023/02/28 16:09:29;;;;;;;10.32;6.00;;;5.50;90.60;;;;;;5021698;28;20076;-78
2023/02/28 16:11:58;;;;;;;7.57;5.47;;;5.50;90.70;;;;;;5024974;28;20037;-78
2023/02/28 16:14:27;;;;;;;12.15;6.32;;;5.40;90.80;;;;;;5025693;28;20039;-78
2023/02/28 16:16:55;;;;;;;10.55;6.43;;;5.40;91.00;;;;;;5019429;28;20935;-78
2023/02/28 16:19:21;;;;;;;10.52;5.97;;;5.40;91.00;;;;;;5013143;28;20116;-78
2023/02/28 16:21:47;;;;;;;10.82;6.05;;;5.30;91.00;;;;;;5024116;28;20029;-77
2023/02/28 16:24:13;;;;;;;10.07;6.15;;;6.30;91.00;;;;;;5021484;28;20039;-76
2023/02/28 16:26:44;;;;;;;8.95;5.93;;;5.50;90.80;;;;;;5035879;28;20054;-77
2023/02/28 16:29:13;;;;;;;;;;;5.40;90.90;;;;;;5033091;28;20035;-78
2023/02/28 16:31:39;;;;;;;12.50;6.00;;;5.30;90.80;;;;;;5034380;28;19908;-76
2023/02/28 16:34:05;;;;;;;10.00;6.25;;;5.40;91.00;;;;;;5039993;28;20036;-77
2023/02/28 16:36:30;;;;;;;12.57;6.57;;;5.20;91.30;;;;;;5011123;28;20391;-78
2023/02/28 16:38:56;;;;;;;9.85;6.30;;;5.20;91.30;;;;;;5034391;28;20127;-76
2023/02/28 16:41:25;;;;;;;9.68;5.70;;;5.20;91.30;;;;;;5021508;28;20044;-76
2023/02/28 16:43:54;;;;;;;9.43;6.10;;;5.20;91.20;;;;;;5034764;28;20032;-76
2023/02/28 16:46:20;;;;;;;10.38;6.18;;;5.20;91.50;;;;;;5029175;28;20395;-78
2023/02/28 16:48:51;;;;;;;10.45;6.18;;;5.10;91.70;;;;;;5031041;28;20087;-77
2023/02/28 16:51:17;;;;;;;12.52;6.45;;;;;;;;;;5013946;28;20097;-78
2023/02/28 16:53:43;;;;;;;9.18;6.40;;;;;;;;;;5031493;28;20095;-77
2023/02/28 16:56:23;;;;;;;10.43;5.88;;;5.00;91.60;;;;;;5030997;28;20041;-77
2023/02/28 16:58:50;;;;;;;9.45;6.50;;;4.90;91.90;;;;;;5012280;28;20499;-77
2023/02/28 17:01:21;;;;;;;9.68;6.07;;;4.90;91.90;;;;;;5022816;28;20030;-78
2023/02/28 17:03:47;;;;;;;10.35;6.15;;;4.80;92.10;;;;;;5029131;28;20029;-78
2023/02/28 17:06:21;;;;;;;9.50;5.82;;;4.90;92.40;;;;;;5050994;28;20037;-78
2023/02/28 17:08:48;;;;;;;10.25;5.90;;;4.80;92.20;;;;;;5034395;28;20025;-77
2023/02/28 17:11:14;;;;;;;9.55;6.07;;;4.70;92.20;;;;;;5037385;28;20033;-77
2023/02/28 17:13:40;;;;;;;10.38;6.38;;;4.70;92.40;;;;;;5012572;28;20034;-77
2023/02/28 17:16:10;;;;;;;9.30;5.97;;;4.70;92.40;;;;;;5032088;28;20029;-76
2023/02/28 17:18:38;;;;;;;9.95;5.85;;;4.60;92.90;;;;;;5034754;28;20419;-78
2023/02/28 17:21:15;;;;;;;11.50;6.80;;;4.50;92.50;;;;;;5012197;28;20555;-77
2023/02/28 17:23:41;;;;;;;14.23;6.70;;;;;;;;;;5011800;28;20497;-77
2023/02/28 17:26:14;;;;;;;8.93;5.90;;;4.60;92.40;;;;;;5012788;28;20022;-77
2023/02/28 17:28:40;;;;;;;9.82;6.20;;;4.50;92.40;;;;;;5016175;28;20028;-77
2023/02/28 17:31:06;;;;;;;9.30;5.57;;;;;;;;;;5017076;28;20537;-78
2023/02/28 17:33:32;;;;;;;11.48;7.10;;;;;;;;;;5030483;28;20375;-77
2023/02/28 17:35:58;;;;;;;11.25;6.80;;;4.50;92.50;;;;;;5023237;28;20037;-78
2023/02/28 17:38:23;;;;;;;11.65;6.80;;;4.40;93.40;;;;;;5032899;28;20043;-78
2023/02/28 17:40:50;;;;;;;11.88;6.78;;;;;;;;;;5028784;28;20418;-76
2023/02/28 17:43:16;;;;;;;8.63;5.95;;;;;;;;;;5025975;28;20141;-77
2023/02/28 17:45:42;;;;;;;12.43;6.78;;;;;;;;;;5029730;28;20029;-78
2023/02/28 17:48:10;;;;;;;9.10;5.93;;;4.10;93.70;;;;;;5009967;28;20035;-77
2023/02/28 17:50:36;;;;;;;10.02;6.35;;;;;;;;;;5028253;28;20051;-78
2023/02/28 17:53:02;;;;;;;9.32;6.10;;;4.20;93.50;;;;;;5011425;28;20517;-77
2023/02/28 17:55:28;;;;;;;10.07;6.28;;;4.20;93.30;;;;;;5019415;28;20485;-78
2023/02/28 17:57:53;;;;;;;10.38;7.10;;;4.20;93.70;;;;;;5026478;28;20029;-77
2023/02/28 18:00:23;;;;;;;11.00;6.72;;;7.10;94.60;;;;;;5025696;28;20041;-78
2023/02/28 18:02:49;;;;;;;9.82;6.15;;;4.10;93.70;;;;;;5029848;28;20034;-78
2023/02/28 18:05:15;;;;;;;12.98;7.03;;;4.10;93.70;;;;;;5029198;28;20142;-78
2023/02/28 18:07:41;;;;;;;10.93;6.93;;;4.10;93.90;;;;;;5014890;28;20025;-76
2023/02/28 18:10:15;;;;;;;11.95;7.18;;;5.00;94.20;;;;;;5029565;28;20036;-77
2023/02/28 18:12:41;;;;;;;12.80;8.02;;;3.90;94.20;;;;;;5010519;28;20095;-76
2023/02/28 18:15:07;;;;;;;11.68;6.97;;;3.80;94.20;;;;;;5020826;28;20067;-78
2023/02/28 18:17:43;;;;;;;10.15;7.10;;;3.90;93.90;;;;;;5040213;28;20494;-78
2023/02/28 18:20:11;;;;;;;12.38;7.05;;;4.00;93.90;;;;;;5027188;28;20055;-78
2023/02/28 18:22:40;;;;;;;12.25;6.95;;;3.90;94.10;;;;;;5046814;28;20040;-78
2023/02/28 18:25:10;;;;;;;10.38;6.57;;;4.00;94.10;;;;;;5050340;28;20051;-77
2023/02/28 18:27:36;;;;;;;10.85;6.38;;;3.90;94.50;;;;;;5050271;28;20092;-77
2023/02/28 18:30:03;;;;;;;11.15;6.72;;;3.80;94.50;;;;;;5044107;28;20038;-78
2023/02/28 18:32:30;;;;;;;17.00;7.18;;;5.10;94.90;;;;;;5033241;28;20024;-79
2023/02/28 18:34:56;;;;;;;12.10;6.70;;;3.70;94.70;;;;;;5056223;28;20054;-80
2023/02/28 18:37:22;;;;;;;9.82;6.50;;;3.70;94.90;;;;;;5037150;28;20085;-79
2023/02/28 18:39:47;;;;;;;11.90;6.90;;;3.60;94.90;;;;;;5016722;28;20053;-78
2023/02/28 18:42:13;;;;;;;11.93;7.22;;;3.60;95.10;;;;;;5032065;28;20040;-79
2023/02/28 18:44:39;;;;;;;12.77;7.03;;;3.50;95.10;;;;;;5005028;28;20120;-79
2023/02/28 18:47:05;;;;;;;12.02;7.75;;;3.50;95.40;;;;;;5029786;28;20093;-78
2023/02/28 18:49:34;;;;;;;16.75;7.55;;;3.50;95.50;;;;;;5021220;28;20029;-77
2023/02/28 18:52:01;;;;;;;27.55;9.45;;;5.20;96.30;;;;;;5008612;28;20030;-78
2023/02/28 18:54:27;;;;;;;12.23;7.88;;;3.40;95.90;;;;;;5028653;28;20014;-79
2023/02/28 18:56:53;;;;;;;14.05;8.18;;;3.40;95.80;;;;;;5025357;28;20060;-79
2023/02/28 18:59:19;;;;;;;15.32;9.00;;;;;;;;;;5025915;28;20101;-78
2023/02/28 19:01:46;;;;;;;11.70;7.65;;;;;;;;;;5037523;28;20567;-78
2023/02/28 19:04:12;;;;;;;12.70;7.10;;;3.30;96.10;;;;;;5019602;28;20510;-79
2023/02/28 19:06:39;;;;;;;9.95;6.70;;;;;;;;;;5022572;28;20084;-79
2023/02/28 19:09:05;;;;;;;11.48;6.88;;;;;;;;;;5038252;28;20035;-78
2023/02/28 19:11:32;;;;;;;13.13;7.13;;;;;;;;;;5019417;28;20122;-77
2023/02/28 19:14:01;;;;;;;13.88;7.07;;;;;;;;;;5035937;28;20029;-78
2023/02/28 19:16:27;;;;;;;11.48;7.25;;;;;;;;;;5033867;28;20487;-78
2023/02/28 19:18:54;;;;;;;12.35;7.15;;;3.20;96.20;;;;;;5030425;28;20088;-78
2023/02/28 19:21:22;;;;;;;12.32;6.75;;;4.90;97.70;;;;;;5037017;28;20057;-78
2023/02/28 19:23:51;;;;;;;13.88;7.43;;;;;;;;;;5027976;28;20032;-80
2023/02/28 19:26:23;;;;;;;14.32;7.07;;;3.10;96.70;;;;;;5013760;28;20092;-79
2023/02/28 19:28:49;;;;;;;11.95;8.07;;;5.00;98.10;;;;;;5030509;28;20135;-78
2023/02/28 19:31:34;;;;;;;11.52;7.03;;;3.00;96.80;;;;;;5018686;28;20049;-78
2023/02/28 19:34:09;;;;;;;10.82;6.75;;;6.30;98.60;;;;;;5031478;28;20037;-78
2023/02/28 19:36:34;;;;;;;12.23;7.15;;;2.50;97.50;;;;;;5017818;28;20037;-79
2023/02/28 19:39:00;;;;;;;12.35;7.22;;;2.20;97.10;;;;;;5031874;28;20036;-77
2023/02/28 19:41:29;;;;;;;10.77;6.60;;;;;;;;;;5031204;28;20454;-78
2023/02/28 19:43:55;;;;;;;12.93;6.93;;;;;;;;;;5024311;28;20029;-80
2023/02/28 19:46:23;;;;;;;10.57;6.60;;;3.00;96.70;;;;;;5032245;28;20406;-80
2023/02/28 19:48:53;;;;;;;10.85;6.97;;;2.90;97.30;;;;;;5030263;28;20018;-79
2023/02/28 19:51:22;;;;;;;14.45;7.28;;;5.70;98.40;;;;;;5028827;28;20048;-78
2023/02/28 19:53:48;;;;;;;19.60;11.70;;;;;;;;;;5005652;28;20029;-79
2023/02/28 19:56:14;;;;;;;19.88;11.05;;;;;;;;;;5030388;28;20037;-79
2023/02/28 19:58:40;;;;;;;18.20;10.95;;;2.80;97.50;;;;;;5034574;28;20037;-79
2023/02/28 20:01:12;;;;;;;15.15;8.50;;;2.80;97.80;;;;;;5036464;28;20029;-78
2023/02/28 20:03:38;;;;;;;12.15;7.00;;;;;;;;;;5033421;28;20036;-80
2023/02/28 20:06:06;;;;;;;14.30;8.35;;;2.80;97.70;;;;;;5015544;28;20082;-78
2023/02/28 20:08:33;;;;;;;17.58;8.45;;;2.80;98.10;;;;;;5031426;28;20029;-79
2023/02/28 20:11:03;;;;;;;10.55;6.18;;;2.70;98.20;;;;;;5025959;28;20916;-79
2023/02/28 20:13:33;;;;;;;10.73;6.80;;;5.40;99.10;;;;;;5017748;28;20033;-78
2023/02/28 20:16:04;;;;;;;14.27;7.38;;;2.70;98.00;;;;;;5030774;28;20038;-78
2023/02/28 20:18:31;;;;;;;16.27;8.40;;;;;;;;;;5032311;28;20025;-79
2023/02/28 20:20:57;;;;;;;15.85;7.22;;;2.80;97.90;;;;;;5028632;28;20029;-79
2023/02/28 20:23:24;;;;;;;12.48;7.38;;;2.70;98.10;;;;;;5032049;28;20072;-79
2023/02/28 20:25:50;;;;;;;13.43;7.20;;;;;;;;;;5037846;28;20025;-78
2023/02/28 20:28:19;;;;;;;11.20;6.30;;;2.60;98.20;;;;;;5038806;28;20220;-78
2023/02/28 20:30:47;;;;;;;11.68;6.78;;;5.00;99.30;;;;;;5032161;28;20382;-78
2023/02/28 20:33:15;;;;;;;12.38;6.53;;;2.90;97.70;;;;;;5030697;28;20558;-79
2023/02/28 20:35:41;;;;;;;11.43;6.70;;;;;;;;;;5035565;28;20510;-79
2023/02/28 20:38:07;;;;;;;10.85;6.40;;;;;;;;;;5043997;28;20025;-79
2023/02/28 20:40:33;;;;;;;11.43;6.80;;;2.90;97.80;;;;;;5058245;28;20021;-77
2023/02/28 20:42:59;;;;;;;11.13;6.35;;;;;;;;;;5045370;28;20110;-77
2023/02/28 20:45:25;;;;;;;9.52;6.25;;;;;;;;;;5033149;28;20431;-78
2023/02/28 20:47:51;;;;;;;13.15;6.43;;;;;;;;;;5005512;28;20026;-79
2023/02/28 20:52:57;;;;;;;10.02;6.30;;;2.90;98.20;;;;;;5038753;22;20042;-84
2023/02/28 20:55:23;;;;;;;12.07;6.78;;;2.90;98.70;;;;;;5012046;28;20021;-83
2023/02/28 20:57:48;;;;;;;12.18;7.05;;;2.80;98.50;;;;;;5031969;28;20048;-84
2023/02/28 21:00:19;;;;;;;11.30;6.53;;;2.70;98.70;;;;;;5018442;28;20041;-85
2023/02/28 21:02:45;;;;;;;12.65;6.60;;;2.70;98.90;;;;;;5015262;28;20030;-85
2023/02/28 21:05:10;;;;;;;12.55;6.88;;;2.70;98.70;;;;;;5020605;28;20035;-85
2023/02/28 21:07:36;;;;;;;11.32;6.75;;;4.30;99.30;;;;;;5015353;28;20061;-84
2023/02/28 21:10:02;;;;;;;10.90;6.18;;;4.90;99.70;;;;;;5015653;28;20059;-82
2023/02/28 21:12:27;;;;;;;11.63;6.80;;;2.80;99.00;;;;;;5017993;28;20032;-84
2023/02/28 21:14:53;;;;;;;11.50;6.30;;;2.80;99.00;;;;;;5014808;28;20025;-83
2023/02/28 21:17:19;;;;;;;12.25;6.90;;;;;;;;;;5016018;28;20064;-83
2023/02/28 21:19:45;;;;;;;11.63;6.60;;;2.70;99.10;;;;;;5011481;28;20033;-83
2023/02/28 21:22:11;;;;;;;12.02;6.85;;;5.30;99.90;;;;;;5016025;28;20068;-84
2023/02/28 21:24:38;;;;;;;8.95;5.85;;;4.40;99.80;;;;;;5017530;28;20036;-84
2023/02/28 21:27:03;;;;;;;10.93;6.35;;;2.70;99.60;;;;;;5021284;28;20581;-83
2023/02/28 21:29:29;;;;;;;10.38;6.13;;;2.60;99.60;;;;;;5035808;28;20022;-85
2023/02/28 21:31:55;;;;;;;10.90;6.80;;;4.30;99.90;;;;;;5025492;28;20089;-81
2023/02/28 21:34:20;;;;;;;12.57;6.90;;;2.50;99.90;;;;;;5024875;28;20061;-81
2023/02/28 21:36:46;;;;;;;10.73;6.30;;;2.50;99.90;;;;;;5021278;28;20099;-80
2023/02/28 21:39:24;;;;;;;11.65;6.95;;;2.40;99.90;;;;;;5014770;28;20116;-83
2023/02/28 21:41:49;;;;;;;13.32;7.38;;;2.50;99.90;;;;;;5015739;28;20079;-84
2023/02/28 21:44:20;;;;;;;11.27;6.93;;;;;;;;;;5018954;28;20044;-84
2023/02/28 21:46:49;;;;;;;13.50;6.57;;;2.40;99.90;;;;;;5028245;28;20067;-81
2023/02/28 21:49:15;;;;;;;10.27;6.22;;;2.40;99.90;;;;;;5027721;28;20042;-83
2023/02/28 21:51:41;;;;;;;11.70;7.30;;;3.50;99.90;;;;;;5015509;28;20034;-86
2023/02/28 21:54:08;;;;;;;14.75;6.82;;;2.70;99.90;;;;;;5031397;28;20033;-85
2023/02/28 21:56:34;;;;;;;13.35;7.15;;;2.50;99.90;;;;;;5034070;28;20033;-86
2023/02/28 21:59:02;;;;;;;12.70;6.90;;;2.60;99.90;;;;;;5031334;28;20045;-83
2023/02/28 22:01:36;;;;;;;9.93;6.18;;;2.50;99.90;;;;;;5016501;28;20104;-82
2023/02/28 22:04:04;;;;;;;12.13;6.65;;;2.40;99.90;;;;;;5006467;28;20490;-84
2023/02/28 22:06:32;;;;;;;10.32;6.50;;;3.10;99.90;;;;;;5020157;28;20017;-82
2023/02/28 22:09:00;;;;;;;14.02;6.75;;;2.40;99.90;;;;;;5019044;28;20036;-83
2023/02/28 22:11:26;;;;;;;11.68;6.80;;;2.40;99.90;;;;;;5010825;28;20044;-83
2023/02/28 22:13:54;;;;;;;12.10;6.57;;;2.30;99.90;;;;;;5011722;28;20057;-85
2023/02/28 22:16:21;;;;;;;12.73;7.30;;;2.50;99.90;;;;;;5014999;28;20548;-84
2023/02/28 22:18:48;;;;;;;10.65;6.88;;;2.30;99.90;;;;;;5012008;28;20026;-82
2023/02/28 22:21:15;;;;;;;11.65;6.63;;;3.80;99.90;;;;;;5033184;28;20982;-83
2023/02/28 22:23:41;;;;;;;13.13;7.03;;;2.20;99.90;;;;;;5027693;28;20116;-84
2023/02/28 22:26:10;;;;;;;12.15;6.63;;;4.90;99.90;;;;;;5021597;28;20098;-86
2023/02/28 22:28:36;;;;;;;13.80;6.40;;;2.30;99.90;;;;;;5032512;28;20040;-85
2023/02/28 22:31:23;;;;;;;14.43;6.47;;;3.30;99.90;;;;;;5017643;28;20152;-85
2023/02/28 22:33:57;;;;;;;9.88;6.18;;;2.40;99.90;;;;;;5033708;28;20608;-85
2023/02/28 22:36:24;;;;;;;13.73;6.90;;;4.20;99.90;;;;;;5019412;28;20056;-84
2023/02/28 22:38:50;;;;;;;12.50;6.57;;;2.30;99.90;;;;;;5016462;28;20044;-86
2023/02/28 22:41:18;;;;;;;11.20;6.63;;;2.20;99.90;;;;;;5020159;28;20036;-84
2023/02/28 22:43:45;;;;;;;12.68;6.82;;;4.70;99.90;;;;;;5039078;28;20116;-84
2023/02/28 22:46:12;;;;;;;11.15;6.53;;;5.10;99.90;;;;;;5019652;28;20033;-85
2023/02/28 22:48:38;;;;;;;12.35;7.10;;;2.10;99.90;;;;;;5037202;28;20026;-84
2023/02/28 22:51:11;;;;;;;11.98;6.55;;;2.70;99.90;;;;;;5023865;28;20063;-85
2023/02/28 22:53:38;;;;;;;12.63;6.90;;;2.00;99.90;;;;;;5021394;28;20052;-84
2023/02/28 22:56:05;;;;;;;13.05;6.72;;;3.40;99.90;;;;;;5017972;28;20044;-85
2023/02/28 22:58:30;;;;;;;11.73;7.10;;;1.90;99.90;;;;;;5021876;28;20104;-84
2023/02/28 23:01:05;;;;;;;12.27;7.28;;;4.40;99.90;;;;;;5022695;28;20040;-85
2023/02/28 23:03:31;;;;;;;11.63;7.03;;;1.80;99.90;;;;;;5038754;28;20603;-84
2023/02/28 23:05:56;;;;;;;12.57;6.53;;;1.80;99.90;;;;;;5017504;28;20118;-84
2023/02/28 23:08:22;;;;;;;13.43;6.97;;;1.80;99.90;;;;;;5034071;28;20064;-85
2023/02/28 23:10:50;;;;;;;15.55;7.13;;;1.70;99.90;;;;;;5022056;28;20485;-85
2023/02/28 23:13:17;;;;;;;13.80;7.95;;;1.70;99.90;;;;;;5020636;28;20779;-83
2023/02/28 23:15:43;;;;;;;11.70;6.70;;;1.80;99.90;;;;;;5036839;28;20033;-84
2023/02/28 23:18:09;;;;;;;11.77;6.45;;;1.80;99.90;;;;;;5018360;28;20030;-85
2023/02/28 23:20:35;;;;;;;10.80;6.22;;;3.20;99.90;;;;;;5020187;28;20452;-84
2023/02/28 23:23:00;;;;;;;13.88;6.60;;;2.50;99.90;;;;;;5020696;28;20029;-84
2023/02/28 23:25:26;;;;;;;11.02;6.20;;;1.80;99.90;;;;;;5015378;28;20060;-85
2023/02/28 23:27:52;;;;;;;14.20;6.47;;;1.80;99.90;;;;;;5014316;28;20033;-85
2023/02/28 23:30:18;;;;;;;12.00;6.97;;;1.80;99.90;;;;;;5035920;28;20025;-85
2023/02/28 23:32:43;;;;;;;10.27;6.75;;;1.80;99.90;;;;;;5019163;28;20022;-84
2023/02/28 23:35:11;;;;;;;13.80;6.82;;;3.00;99.90;;;;;;5031592;28;20109;-86
2023/02/28 23:37:38;;;;;;;12.23;7.22;;;1.80;99.90;;;;;;5022980;28;20033;-84
2023/02/28 23:40:10;;;;;;;13.25;6.80;;;2.90;99.90;;;;;;5030593;28;20116;-83
2023/02/28 23:42:36;;;;;;;13.38;6.63;;;1.90;99.90;;;;;;5038449;28;20096;-85
2023/02/28 23:45:02;;;;;;;12.45;6.63;;;1.90;99.90;;;;;;5022013;28;20065;-85
2023/02/28 23:47:28;;;;;;;12.00;6.70;;;1.80;99.90;;;;;;5025739;28;20103;-86
2023/02/28 23:49:53;;;;;;;15.95;7.32;;;1.80;99.90;;;;;;5035372;28;20037;-85
2023/02/28 23:52:19;;;;;;;11.95;6.57;;;1.80;99.90;;;;;;5017237;28;20056;-86
2023/02/28 23:54:45;;;;;;;12.75;7.55;;;1.70;99.90;;;;;;5018105;28;20049;-85
2023/02/28 23:57:11;;;;;;;16.10;8.77;;;1.70;99.90;;;;;;5040982;28;20083;-85
2023/02/28 23:59:37;;;;;;;12.63;7.45;;;3.40;99.90;;;;;;5030468;28;20032;-84
